sensor_id;sensor_type;location;lat;lon;timestamp;P1;durP1;ratioP1;P2;durP2;ratioP2
48935;SDS011;34745;52.276;10.528;2022-10-16T00:01:36;2.30;;;2.03;;
48935;SDS011;34745;52.276;10.528;2022-10-16T00:04:04;4.37;;;2.13;;
48935;SDS011;34745;52.276;10.528;2022-10-16T00:06:31;2.70;;;2.33;;
48935;SDS011;34745;52.276;10.528;2022-10-16T00:08:58;2.40;;;2.20;;
48935;SDS011;34745;52.276;10.528;2022-10-16T00:11:27;2.23;;;2.13;;
48935;SDS011;34745;52.276;10.528;2022-10-16T00:13:56;3.20;;;2.33;;
48935;SDS011;34745;52.276;10.528;2022-10-16T00:16:27;2.50;;;2.30;;
48935;SDS011;34745;52.276;10.528;2022-10-16T00:18:55;2.30;;;2.10;;
48935;SDS011;34745;52.276;10.528;2022-10-16T00:21:23;4.00;;;2.40;;
48935;SDS011;34745;52.276;10.528;2022-10-16T00:23:52;2.67;;;2.10;;
48935;SDS011;34745;52.276;10.528;2022-10-16T00:26:21;6.37;;;2.53;;
48935;SDS011;34745;52.276;10.528;2022-10-16T00:28:49;2.43;;;2.13;;
48935;SDS011;34745;52.276;10.528;2022-10-16T00:31:18;5.70;;;2.27;;
48935;SDS011;34745;52.276;10.528;2022-10-16T00:33:48;7.60;;;2.10;;
48935;SDS011;34745;52.276;10.528;2022-10-16T00:36:17;6.27;;;2.30;;
48935;SDS011;34745;52.276;10.528;2022-10-16T00:38:45;6.80;;;2.23;;
48935;SDS011;34745;52.276;10.528;2022-10-16T00:41:13;3.43;;;2.20;;
48935;SDS011;34745;52.276;10.528;2022-10-16T00:43:42;3.60;;;2.10;;
48935;SDS011;34745;52.276;10.528;2022-10-16T00:46:13;6.23;;;2.20;;
48935;SDS011;34745;52.276;10.528;2022-10-16T00:48:45;4.07;;;2.33;;
48935;SDS011;34745;52.276;10.528;2022-10-16T00:51:17;6.53;;;2.90;;
48935;SDS011;34745;52.276;10.528;2022-10-16T00:53:48;4.10;;;2.50;;
48935;SDS011;34745;52.276;10.528;2022-10-16T00:56:18;3.87;;;2.40;;
48935;SDS011;34745;52.276;10.528;2022-10-16T00:58:46;6.93;;;2.57;;
48935;SDS011;34745;52.276;10.528;2022-10-16T01:01:13;4.00;;;2.50;;
48935;SDS011;34745;52.276;10.528;2022-10-16T01:03:41;2.83;;;2.30;;
48935;SDS011;34745;52.276;10.528;2022-10-16T01:06:16;2.97;;;2.20;;
48935;SDS011;34745;52.276;10.528;2022-10-16T01:08:58;7.83;;;2.23;;
48935;SDS011;34745;52.276;10.528;2022-10-16T01:11:33;5.83;;;2.50;;
48935;SDS011;34745;52.276;10.528;2022-10-16T01:14:13;3.23;;;2.53;;
48935;SDS011;34745;52.276;10.528;2022-10-16T01:16:45;2.70;;;2.50;;
48935;SDS011;34745;52.276;10.528;2022-10-16T01:19:20;2.50;;;2.30;;
48935;SDS011;34745;52.276;10.528;2022-10-16T01:22:02;2.60;;;2.40;;
48935;SDS011;34745;52.276;10.528;2022-10-16T01:24:31;4.63;;;2.40;;
48935;SDS011;34745;52.276;10.528;2022-10-16T01:27:13;3.30;;;2.40;;
48935;SDS011;34745;52.276;10.528;2022-10-16T01:29:46;2.70;;;2.50;;
48935;SDS011;34745;52.276;10.528;2022-10-16T01:32:19;3.20;;;2.20;;
48935;SDS011;34745;52.276;10.528;2022-10-16T01:34:51;3.97;;;2.57;;
48935;SDS011;34745;52.276;10.528;2022-10-16T01:37:25;4.03;;;2.53;;
48935;SDS011;34745;52.276;10.528;2022-10-16T01:39:58;2.83;;;2.30;;
48935;SDS011;34745;52.276;10.528;2022-10-16T01:42:30;2.83;;;2.20;;
48935;SDS011;34745;52.276;10.528;2022-10-16T01:45:00;3.33;;;2.53;;
48935;SDS011;34745;52.276;10.528;2022-10-16T01:47:29;3.17;;;2.10;;
48935;SDS011;34745;52.276;10.528;2022-10-16T01:49:57;2.97;;;2.60;;
48935;SDS011;34745;52.276;10.528;2022-10-16T01:52:26;5.80;;;2.40;;
48935;SDS011;34745;52.276;10.528;2022-10-16T01:54:55;4.80;;;2.50;;
48935;SDS011;34745;52.276;10.528;2022-10-16T01:57:24;2.40;;;2.20;;
48935;SDS011;34745;52.276;10.528;2022-10-16T01:59:56;2.93;;;2.40;;
48935;SDS011;34745;52.276;10.528;2022-10-16T02:02:28;5.17;;;2.20;;
48935;SDS011;34745;52.276;10.528;2022-10-16T02:04:57;3.43;;;2.50;;
48935;SDS011;34745;52.276;10.528;2022-10-16T02:07:28;4.80;;;2.43;;
48935;SDS011;34745;52.276;10.528;2022-10-16T02:09:55;3.47;;;2.30;;
48935;SDS011;34745;52.276;10.528;2022-10-16T02:12:25;3.20;;;2.47;;
48935;SDS011;34745;52.276;10.528;2022-10-16T02:14:56;3.70;;;2.20;;
48935;SDS011;34745;52.276;10.528;2022-10-16T02:17:24;3.33;;;2.77;;
48935;SDS011;34745;52.276;10.528;2022-10-16T02:19:52;3.17;;;2.60;;
48935;SDS011;34745;52.276;10.528;2022-10-16T02:22:23;3.23;;;2.10;;
48935;SDS011;34745;52.276;10.528;2022-10-16T02:24:54;5.43;;;2.50;;
48935;SDS011;34745;52.276;10.528;2022-10-16T02:27:26;4.23;;;2.30;;
48935;SDS011;34745;52.276;10.528;2022-10-16T02:30:02;5.50;;;2.57;;
48935;SDS011;34745;52.276;10.528;2022-10-16T02:32:35;2.60;;;2.37;;
48935;SDS011;34745;52.276;10.528;2022-10-16T02:35:06;2.53;;;2.23;;
48935;SDS011;34745;52.276;10.528;2022-10-16T02:37:34;2.77;;;2.30;;
48935;SDS011;34745;52.276;10.528;2022-10-16T02:40:03;4.43;;;2.37;;
48935;SDS011;34745;52.276;10.528;2022-10-16T02:42:33;3.90;;;2.30;;
48935;SDS011;34745;52.276;10.528;2022-10-16T02:45:03;4.97;;;2.30;;
48935;SDS011;34745;52.276;10.528;2022-10-16T02:47:30;4.87;;;2.40;;
48935;SDS011;34745;52.276;10.528;2022-10-16T02:49:58;5.43;;;2.60;;
48935;SDS011;34745;52.276;10.528;2022-10-16T02:52:25;4.47;;;2.57;;
48935;SDS011;34745;52.276;10.528;2022-10-16T02:54:53;4.70;;;2.67;;
48935;SDS011;34745;52.276;10.528;2022-10-16T02:57:20;4.70;;;2.50;;
48935;SDS011;34745;52.276;10.528;2022-10-16T02:59:47;5.90;;;2.60;;
48935;SDS011;34745;52.276;10.528;2022-10-16T03:02:15;3.90;;;2.53;;
48935;SDS011;34745;52.276;10.528;2022-10-16T03:04:42;5.17;;;2.43;;
48935;SDS011;34745;52.276;10.528;2022-10-16T03:07:10;3.00;;;2.30;;
48935;SDS011;34745;52.276;10.528;2022-10-16T03:09:37;2.77;;;2.40;;
48935;SDS011;34745;52.276;10.528;2022-10-16T03:12:04;5.53;;;2.50;;
48935;SDS011;34745;52.276;10.528;2022-10-16T03:14:31;3.80;;;2.30;;
48935;SDS011;34745;52.276;10.528;2022-10-16T03:16:58;3.20;;;2.60;;
48935;SDS011;34745;52.276;10.528;2022-10-16T03:19:26;5.63;;;2.10;;
48935;SDS011;34745;52.276;10.528;2022-10-16T03:21:53;5.27;;;2.30;;
48935;SDS011;34745;52.276;10.528;2022-10-16T03:24:20;8.13;;;2.33;;
48935;SDS011;34745;52.276;10.528;2022-10-16T03:26:48;6.53;;;2.60;;
48935;SDS011;34745;52.276;10.528;2022-10-16T03:29:14;2.43;;;2.20;;
48935;SDS011;34745;52.276;10.528;2022-10-16T03:31:41;3.73;;;2.10;;
48935;SDS011;34745;52.276;10.528;2022-10-16T03:34:09;6.33;;;2.70;;
48935;SDS011;34745;52.276;10.528;2022-10-16T03:36:37;4.00;;;2.70;;
48935;SDS011;34745;52.276;10.528;2022-10-16T03:39:04;3.00;;;2.60;;
48935;SDS011;34745;52.276;10.528;2022-10-16T03:41:31;3.90;;;2.27;;
48935;SDS011;34745;52.276;10.528;2022-10-16T03:43:58;3.73;;;2.43;;
48935;SDS011;34745;52.276;10.528;2022-10-16T03:46:25;12.33;;;2.87;;
48935;SDS011;34745;52.276;10.528;2022-10-16T03:48:52;7.97;;;2.70;;
48935;SDS011;34745;52.276;10.528;2022-10-16T03:51:19;4.83;;;2.73;;
48935;SDS011;34745;52.276;10.528;2022-10-16T03:53:47;5.77;;;2.80;;
48935;SDS011;34745;52.276;10.528;2022-10-16T03:56:14;7.53;;;2.90;;
48935;SDS011;34745;52.276;10.528;2022-10-16T03:58:41;7.13;;;3.03;;
48935;SDS011;34745;52.276;10.528;2022-10-16T04:01:08;7.10;;;2.83;;
48935;SDS011;34745;52.276;10.528;2022-10-16T04:03:36;4.97;;;3.20;;
48935;SDS011;34745;52.276;10.528;2022-10-16T04:06:03;6.53;;;3.23;;
48935;SDS011;34745;52.276;10.528;2022-10-16T04:08:30;4.73;;;2.80;;
48935;SDS011;34745;52.276;10.528;2022-10-16T04:11:01;4.10;;;3.17;;
48935;SDS011;34745;52.276;10.528;2022-10-16T04:13:29;8.93;;;3.50;;
48935;SDS011;34745;52.276;10.528;2022-10-16T04:15:56;8.87;;;3.93;;
48935;SDS011;34745;52.276;10.528;2022-10-16T04:18:23;7.20;;;3.63;;
48935;SDS011;34745;52.276;10.528;2022-10-16T04:20:53;5.43;;;3.43;;
48935;SDS011;34745;52.276;10.528;2022-10-16T04:23:20;4.70;;;3.17;;
48935;SDS011;34745;52.276;10.528;2022-10-16T04:25:49;9.03;;;3.47;;
48935;SDS011;34745;52.276;10.528;2022-10-16T04:28:17;7.73;;;3.70;;
48935;SDS011;34745;52.276;10.528;2022-10-16T04:30:44;7.47;;;3.27;;
48935;SDS011;34745;52.276;10.528;2022-10-16T04:33:11;9.50;;;3.70;;
48935;SDS011;34745;52.276;10.528;2022-10-16T04:35:39;7.30;;;3.47;;
48935;SDS011;34745;52.276;10.528;2022-10-16T04:38:06;6.57;;;3.53;;
48935;SDS011;34745;52.276;10.528;2022-10-16T04:40:33;7.93;;;3.27;;
48935;SDS011;34745;52.276;10.528;2022-10-16T04:43:02;4.60;;;3.17;;
48935;SDS011;34745;52.276;10.528;2022-10-16T04:45:31;4.60;;;3.07;;
48935;SDS011;34745;52.276;10.528;2022-10-16T04:47:58;5.90;;;3.17;;
48935;SDS011;34745;52.276;10.528;2022-10-16T04:50:26;5.20;;;2.80;;
48935;SDS011;34745;52.276;10.528;2022-10-16T04:52:53;5.23;;;2.77;;
48935;SDS011;34745;52.276;10.528;2022-10-16T04:55:20;5.47;;;3.20;;
48935;SDS011;34745;52.276;10.528;2022-10-16T04:57:47;11.60;;;2.83;;
48935;SDS011;34745;52.276;10.528;2022-10-16T05:00:14;3.10;;;2.80;;
48935;SDS011;34745;52.276;10.528;2022-10-16T05:02:43;5.23;;;2.87;;
48935;SDS011;34745;52.276;10.528;2022-10-16T05:05:10;5.67;;;2.80;;
48935;SDS011;34745;52.276;10.528;2022-10-16T05:07:38;6.57;;;2.60;;
48935;SDS011;34745;52.276;10.528;2022-10-16T05:10:05;4.30;;;2.80;;
48935;SDS011;34745;52.276;10.528;2022-10-16T05:12:33;6.17;;;2.80;;
48935;SDS011;34745;52.276;10.528;2022-10-16T05:14:59;4.37;;;2.83;;
48935;SDS011;34745;52.276;10.528;2022-10-16T05:17:27;4.53;;;3.00;;
48935;SDS011;34745;52.276;10.528;2022-10-16T05:19:55;3.33;;;3.03;;
48935;SDS011;34745;52.276;10.528;2022-10-16T05:22:23;4.43;;;3.27;;
48935;SDS011;34745;52.276;10.528;2022-10-16T05:24:49;4.67;;;3.20;;
48935;SDS011;34745;52.276;10.528;2022-10-16T05:27:17;5.70;;;3.20;;
48935;SDS011;34745;52.276;10.528;2022-10-16T05:29:47;5.87;;;3.00;;
48935;SDS011;34745;52.276;10.528;2022-10-16T05:32:15;15.27;;;3.60;;
48935;SDS011;34745;52.276;10.528;2022-10-16T05:34:43;2.93;;;2.73;;
48935;SDS011;34745;52.276;10.528;2022-10-16T05:37:12;4.70;;;3.27;;
48935;SDS011;34745;52.276;10.528;2022-10-16T05:39:39;3.70;;;2.70;;
48935;SDS011;34745;52.276;10.528;2022-10-16T05:42:06;3.40;;;2.70;;
48935;SDS011;34745;52.276;10.528;2022-10-16T05:44:33;4.13;;;3.00;;
48935;SDS011;34745;52.276;10.528;2022-10-16T05:47:06;5.40;;;2.97;;
48935;SDS011;34745;52.276;10.528;2022-10-16T05:49:33;6.93;;;3.33;;
48935;SDS011;34745;52.276;10.528;2022-10-16T05:52:05;3.60;;;2.87;;
48935;SDS011;34745;52.276;10.528;2022-10-16T05:54:34;3.03;;;2.83;;
48935;SDS011;34745;52.276;10.528;2022-10-16T05:57:01;3.60;;;3.30;;
48935;SDS011;34745;52.276;10.528;2022-10-16T05:59:28;3.30;;;2.90;;
48935;SDS011;34745;52.276;10.528;2022-10-16T06:01:55;4.60;;;3.03;;
48935;SDS011;34745;52.276;10.528;2022-10-16T06:04:22;7.83;;;3.30;;
48935;SDS011;34745;52.276;10.528;2022-10-16T06:06:49;3.53;;;3.23;;
48935;SDS011;34745;52.276;10.528;2022-10-16T06:09:17;9.90;;;3.37;;
48935;SDS011;34745;52.276;10.528;2022-10-16T06:11:45;4.40;;;3.10;;
48935;SDS011;34745;52.276;10.528;2022-10-16T06:14:12;12.60;;;3.50;;
48935;SDS011;34745;52.276;10.528;2022-10-16T06:16:39;9.50;;;3.20;;
48935;SDS011;34745;52.276;10.528;2022-10-16T06:19:06;4.10;;;2.97;;
48935;SDS011;34745;52.276;10.528;2022-10-16T06:21:34;6.43;;;3.10;;
48935;SDS011;34745;52.276;10.528;2022-10-16T06:24:01;4.33;;;3.13;;
48935;SDS011;34745;52.276;10.528;2022-10-16T06:26:29;4.40;;;3.00;;
48935;SDS011;34745;52.276;10.528;2022-10-16T06:28:58;5.50;;;3.17;;
48935;SDS011;34745;52.276;10.528;2022-10-16T06:31:26;5.63;;;3.33;;
48935;SDS011;34745;52.276;10.528;2022-10-16T06:33:57;7.97;;;3.10;;
48935;SDS011;34745;52.276;10.528;2022-10-16T06:36:24;4.07;;;3.10;;
48935;SDS011;34745;52.276;10.528;2022-10-16T06:38:52;4.67;;;3.00;;
48935;SDS011;34745;52.276;10.528;2022-10-16T06:41:20;3.60;;;3.30;;
48935;SDS011;34745;52.276;10.528;2022-10-16T06:43:48;7.50;;;3.47;;
48935;SDS011;34745;52.276;10.528;2022-10-16T06:46:17;8.90;;;3.30;;
48935;SDS011;34745;52.276;10.528;2022-10-16T06:48:46;6.13;;;3.10;;
48935;SDS011;34745;52.276;10.528;2022-10-16T06:51:14;6.10;;;3.07;;
48935;SDS011;34745;52.276;10.528;2022-10-16T06:53:43;4.03;;;3.00;;
48935;SDS011;34745;52.276;10.528;2022-10-16T06:56:30;8.53;;;3.03;;
48935;SDS011;34745;52.276;10.528;2022-10-16T06:58:58;5.33;;;3.13;;
48935;SDS011;34745;52.276;10.528;2022-10-16T07:01:27;4.13;;;3.07;;
48935;SDS011;34745;52.276;10.528;2022-10-16T07:03:55;3.03;;;2.73;;
48935;SDS011;34745;52.276;10.528;2022-10-16T07:06:23;4.87;;;2.90;;
48935;SDS011;34745;52.276;10.528;2022-10-16T07:08:52;6.33;;;3.07;;
48935;SDS011;34745;52.276;10.528;2022-10-16T07:11:20;4.53;;;3.20;;
48935;SDS011;34745;52.276;10.528;2022-10-16T07:13:49;4.93;;;3.13;;
48935;SDS011;34745;52.276;10.528;2022-10-16T07:16:22;10.63;;;3.47;;
48935;SDS011;34745;52.276;10.528;2022-10-16T07:18:53;3.43;;;2.60;;
48935;SDS011;34745;52.276;10.528;2022-10-16T07:21:24;5.63;;;2.90;;
48935;SDS011;34745;52.276;10.528;2022-10-16T07:23:53;4.20;;;2.70;;
48935;SDS011;34745;52.276;10.528;2022-10-16T07:26:21;4.47;;;2.93;;
48935;SDS011;34745;52.276;10.528;2022-10-16T07:28:49;6.53;;;2.70;;
48935;SDS011;34745;52.276;10.528;2022-10-16T07:31:17;3.30;;;2.10;;
48935;SDS011;34745;52.276;10.528;2022-10-16T07:33:46;2.90;;;2.63;;
48935;SDS011;34745;52.276;10.528;2022-10-16T07:36:16;6.03;;;3.00;;
48935;SDS011;34745;52.276;10.528;2022-10-16T07:38:44;5.50;;;2.83;;
48935;SDS011;34745;52.276;10.528;2022-10-16T07:41:12;6.37;;;2.40;;
48935;SDS011;34745;52.276;10.528;2022-10-16T07:43:45;6.63;;;2.30;;
48935;SDS011;34745;52.276;10.528;2022-10-16T07:46:13;3.93;;;2.30;;
48935;SDS011;34745;52.276;10.528;2022-10-16T07:48:41;3.60;;;2.30;;
48935;SDS011;34745;52.276;10.528;2022-10-16T07:51:12;2.27;;;1.80;;
48935;SDS011;34745;52.276;10.528;2022-10-16T07:53:42;9.50;;;1.83;;
48935;SDS011;34745;52.276;10.528;2022-10-16T07:56:09;2.20;;;1.57;;
48935;SDS011;34745;52.276;10.528;2022-10-16T07:58:38;2.33;;;1.50;;
48935;SDS011;34745;52.276;10.528;2022-10-16T08:01:05;2.83;;;1.50;;
48935;SDS011;34745;52.276;10.528;2022-10-16T08:03:34;5.17;;;1.40;;
48935;SDS011;34745;52.276;10.528;2022-10-16T08:06:02;2.03;;;1.50;;
48935;SDS011;34745;52.276;10.528;2022-10-16T08:08:30;3.23;;;1.40;;
48935;SDS011;34745;52.276;10.528;2022-10-16T08:10:59;1.83;;;1.50;;
48935;SDS011;34745;52.276;10.528;2022-10-16T08:13:26;4.30;;;1.30;;
48935;SDS011;34745;52.276;10.528;2022-10-16T08:15:54;1.27;;;1.17;;
48935;SDS011;34745;52.276;10.528;2022-10-16T08:18:22;1.93;;;1.50;;
48935;SDS011;34745;52.276;10.528;2022-10-16T08:20:54;2.37;;;1.30;;
48935;SDS011;34745;52.276;10.528;2022-10-16T08:23:23;5.57;;;1.50;;
48935;SDS011;34745;52.276;10.528;2022-10-16T08:25:52;1.30;;;1.10;;
48935;SDS011;34745;52.276;10.528;2022-10-16T08:28:22;3.20;;;1.30;;
48935;SDS011;34745;52.276;10.528;2022-10-16T08:30:49;3.00;;;1.50;;
48935;SDS011;34745;52.276;10.528;2022-10-16T08:33:17;1.83;;;1.10;;
48935;SDS011;34745;52.276;10.528;2022-10-16T08:35:49;3.17;;;1.10;;
48935;SDS011;34745;52.276;10.528;2022-10-16T08:38:17;1.00;;;1.00;;
48935;SDS011;34745;52.276;10.528;2022-10-16T08:40:44;2.53;;;1.10;;
48935;SDS011;34745;52.276;10.528;2022-10-16T08:43:27;4.10;;;1.40;;
48935;SDS011;34745;52.276;10.528;2022-10-16T08:46:14;4.53;;;1.30;;
48935;SDS011;34745;52.276;10.528;2022-10-16T08:48:48;1.53;;;1.40;;
48935;SDS011;34745;52.276;10.528;2022-10-16T08:51:18;2.83;;;1.10;;
48935;SDS011;34745;52.276;10.528;2022-10-16T08:53:49;1.83;;;1.30;;
48935;SDS011;34745;52.276;10.528;2022-10-16T08:56:20;2.93;;;1.33;;
48935;SDS011;34745;52.276;10.528;2022-10-16T08:58:49;1.83;;;1.20;;
48935;SDS011;34745;52.276;10.528;2022-10-16T09:01:21;1.50;;;1.23;;
48935;SDS011;34745;52.276;10.528;2022-10-16T09:03:58;2.87;;;1.27;;
48935;SDS011;34745;52.276;10.528;2022-10-16T09:06:53;7.83;;;1.40;;
48935;SDS011;34745;52.276;10.528;2022-10-16T09:12:25;1.80;;;1.13;;
48935;SDS011;34745;52.276;10.528;2022-10-16T09:15:01;2.23;;;1.50;;
48935;SDS011;34745;52.276;10.528;2022-10-16T09:17:38;2.10;;;1.20;;
48935;SDS011;34745;52.276;10.528;2022-10-16T09:20:26;5.20;;;1.57;;
48935;SDS011;34745;52.276;10.528;2022-10-16T09:23:08;2.03;;;1.23;;
48935;SDS011;34745;52.276;10.528;2022-10-16T09:25:42;3.35;;;1.05;;
48935;SDS011;34745;52.276;10.528;2022-10-16T09:28:11;1.93;;;1.30;;
48935;SDS011;34745;52.276;10.528;2022-10-16T09:30:39;2.50;;;1.43;;
48935;SDS011;34745;52.276;10.528;2022-10-16T09:33:07;3.03;;;1.20;;
48935;SDS011;34745;52.276;10.528;2022-10-16T09:35:36;3.33;;;1.40;;
48935;SDS011;34745;52.276;10.528;2022-10-16T09:38:05;4.00;;;1.20;;
48935;SDS011;34745;52.276;10.528;2022-10-16T09:40:34;2.90;;;1.20;;
48935;SDS011;34745;52.276;10.528;2022-10-16T09:43:05;3.27;;;1.23;;
48935;SDS011;34745;52.276;10.528;2022-10-16T09:45:43;2.33;;;1.13;;
48935;SDS011;34745;52.276;10.528;2022-10-16T09:48:21;2.37;;;1.10;;
48935;SDS011;34745;52.276;10.528;2022-10-16T09:50:55;1.20;;;1.20;;
48935;SDS011;34745;52.276;10.528;2022-10-16T09:53:23;1.30;;;1.10;;
48935;SDS011;34745;52.276;10.528;2022-10-16T09:55:53;1.27;;;1.17;;
48935;SDS011;34745;52.276;10.528;2022-10-16T09:58:23;1.17;;;1.07;;
48935;SDS011;34745;52.276;10.528;2022-10-16T10:00:52;2.47;;;1.17;;
48935;SDS011;34745;52.276;10.528;2022-10-16T10:03:27;2.23;;;1.17;;
48935;SDS011;34745;52.276;10.528;2022-10-16T10:06:03;3.40;;;0.90;;
48935;SDS011;34745;52.276;10.528;2022-10-16T10:08:41;2.83;;;0.90;;
48935;SDS011;34745;52.276;10.528;2022-10-16T10:14:20;1.55;;;0.85;;
48935;SDS011;34745;52.276;10.528;2022-10-16T10:16:51;4.57;;;1.17;;
48935;SDS011;34745;52.276;10.528;2022-10-16T10:19:19;5.95;;;1.30;;
48935;SDS011;34745;52.276;10.528;2022-10-16T10:21:47;2.08;;;0.95;;
48935;SDS011;34745;52.276;10.528;2022-10-16T10:24:16;3.03;;;1.08;;
48935;SDS011;34745;52.276;10.528;2022-10-16T10:26:47;4.40;;;1.00;;
48935;SDS011;34745;52.276;10.528;2022-10-16T10:29:21;3.95;;;0.80;;
48935;SDS011;34745;52.276;10.528;2022-10-16T10:32:12;1.17;;;0.90;;
48935;SDS011;34745;52.276;10.528;2022-10-16T10:37:47;0.80;;;0.80;;
48935;SDS011;34745;52.276;10.528;2022-10-16T10:40:28;1.40;;;1.00;;
48935;SDS011;34745;52.276;10.528;2022-10-16T10:43:08;3.30;;;1.08;;
48935;SDS011;34745;52.276;10.528;2022-10-16T10:45:44;3.13;;;1.20;;
48935;SDS011;34745;52.276;10.528;2022-10-16T10:48:19;1.02;;;0.98;;
48935;SDS011;34745;52.276;10.528;2022-10-16T10:50:56;2.08;;;0.80;;
48935;SDS011;34745;52.276;10.528;2022-10-16T10:53:31;1.65;;;1.50;;
48935;SDS011;34745;52.276;10.528;2022-10-16T10:56:08;1.50;;;0.95;;
48935;SDS011;34745;52.276;10.528;2022-10-16T10:58:46;2.22;;;0.90;;
48935;SDS011;34745;52.276;10.528;2022-10-16T11:01:33;0.73;;;0.73;;
48935;SDS011;34745;52.276;10.528;2022-10-16T11:04:17;2.90;;;0.90;;
48935;SDS011;34745;52.276;10.528;2022-10-16T11:07:00;3.00;;;1.00;;
48935;SDS011;34745;52.276;10.528;2022-10-16T11:09:31;2.38;;;0.93;;
48935;SDS011;34745;52.276;10.528;2022-10-16T11:12:04;1.10;;;0.93;;
48935;SDS011;34745;52.276;10.528;2022-10-16T11:14:40;2.15;;;1.00;;
48935;SDS011;34745;52.276;10.528;2022-10-16T11:17:13;1.75;;;0.70;;
48935;SDS011;34745;52.276;10.528;2022-10-16T11:19:48;2.85;;;0.93;;
48935;SDS011;34745;52.276;10.528;2022-10-16T11:22:21;1.75;;;0.90;;
48935;SDS011;34745;52.276;10.528;2022-10-16T11:24:55;2.15;;;1.10;;
48935;SDS011;34745;52.276;10.528;2022-10-16T11:27:33;2.90;;;1.15;;
48935;SDS011;34745;52.276;10.528;2022-10-16T11:30:04;2.38;;;0.88;;
48935;SDS011;34745;52.276;10.528;2022-10-16T11:32:47;3.33;;;1.23;;
48935;SDS011;34745;52.276;10.528;2022-10-16T11:35:23;2.17;;;1.00;;
48935;SDS011;34745;52.276;10.528;2022-10-16T11:37:58;1.85;;;1.00;;
48935;SDS011;34745;52.276;10.528;2022-10-16T11:40:30;3.17;;;1.05;;
48935;SDS011;34745;52.276;10.528;2022-10-16T11:43:02;7.40;;;1.23;;
48935;SDS011;34745;52.276;10.528;2022-10-16T11:45:38;2.35;;;1.00;;
48935;SDS011;34745;52.276;10.528;2022-10-16T11:48:15;3.00;;;1.10;;
48935;SDS011;34745;52.276;10.528;2022-10-16T11:51:21;4.25;;;1.00;;
48935;SDS011;34745;52.276;10.528;2022-10-16T11:54:07;1.45;;;1.00;;
48935;SDS011;34745;52.276;10.528;2022-10-16T11:56:50;2.50;;;1.10;;
48935;SDS011;34745;52.276;10.528;2022-10-16T11:59:27;5.38;;;1.17;;
48935;SDS011;34745;52.276;10.528;2022-10-16T12:02:15;2.22;;;0.98;;
48935;SDS011;34745;52.276;10.528;2022-10-16T12:05:13;2.28;;;0.90;;
48935;SDS011;34745;52.276;10.528;2022-10-16T12:07:51;3.17;;;1.17;;
48935;SDS011;34745;52.276;10.528;2022-10-16T12:10:35;2.10;;;1.00;;
48935;SDS011;34745;52.276;10.528;2022-10-16T12:13:25;1.83;;;0.90;;
48935;SDS011;34745;52.276;10.528;2022-10-16T12:16:04;4.07;;;1.00;;
48935;SDS011;34745;52.276;10.528;2022-10-16T12:18:43;2.88;;;1.10;;
48935;SDS011;34745;52.276;10.528;2022-10-16T12:21:18;4.28;;;1.30;;
48935;SDS011;34745;52.276;10.528;2022-10-16T12:24:06;1.58;;;1.00;;
48935;SDS011;34745;52.276;10.528;2022-10-16T12:27:01;2.00;;;1.02;;
48935;SDS011;34745;52.276;10.528;2022-10-16T12:29:58;2.55;;;1.05;;
48935;SDS011;34745;52.276;10.528;2022-10-16T12:32:41;3.53;;;1.05;;
48935;SDS011;34745;52.276;10.528;2022-10-16T12:35:23;2.85;;;1.00;;
48935;SDS011;34745;52.276;10.528;2022-10-16T12:38:14;2.20;;;1.00;;
48935;SDS011;34745;52.276;10.528;2022-10-16T12:40:56;2.83;;;1.02;;
48935;SDS011;34745;52.276;10.528;2022-10-16T12:43:40;3.03;;;0.90;;
48935;SDS011;34745;52.276;10.528;2022-10-16T12:46:24;2.63;;;1.08;;
48935;SDS011;34745;52.276;10.528;2022-10-16T12:49:23;4.47;;;1.17;;
48935;SDS011;34745;52.276;10.528;2022-10-16T12:52:22;2.22;;;1.00;;
48935;SDS011;34745;52.276;10.528;2022-10-16T12:55:00;3.42;;;1.35;;
48935;SDS011;34745;52.276;10.528;2022-10-16T12:58:03;2.47;;;0.90;;
48935;SDS011;34745;52.276;10.528;2022-10-16T13:00:44;2.67;;;0.80;;
48935;SDS011;34745;52.276;10.528;2022-10-16T13:03:31;2.08;;;1.15;;
48935;SDS011;34745;52.276;10.528;2022-10-16T13:06:39;2.60;;;1.10;;
48935;SDS011;34745;52.276;10.528;2022-10-16T13:09:36;2.85;;;1.20;;
48935;SDS011;34745;52.276;10.528;2022-10-16T13:12:27;1.13;;;0.80;;
48935;SDS011;34745;52.276;10.528;2022-10-16T13:15:29;1.25;;;0.98;;
48935;SDS011;34745;52.276;10.528;2022-10-16T13:18:10;4.82;;;1.17;;
48935;SDS011;34745;52.276;10.528;2022-10-16T13:20:58;1.23;;;1.23;;
48935;SDS011;34745;52.276;10.528;2022-10-16T13:23:48;1.98;;;1.20;;
48935;SDS011;34745;52.276;10.528;2022-10-16T13:26:27;2.45;;;0.95;;
48935;SDS011;34745;52.276;10.528;2022-10-16T13:29:09;3.55;;;1.05;;
48935;SDS011;34745;52.276;10.528;2022-10-16T13:31:51;3.53;;;1.23;;
48935;SDS011;34745;52.276;10.528;2022-10-16T13:34:21;2.17;;;1.00;;
48935;SDS011;34745;52.276;10.528;2022-10-16T13:36:54;3.55;;;0.90;;
48935;SDS011;34745;52.276;10.528;2022-10-16T13:39:30;3.35;;;1.20;;
48935;SDS011;34745;52.276;10.528;2022-10-16T13:42:03;4.30;;;0.90;;
48935;SDS011;34745;52.276;10.528;2022-10-16T13:44:39;3.05;;;1.17;;
48935;SDS011;34745;52.276;10.528;2022-10-16T13:47:29;2.67;;;0.90;;
48935;SDS011;34745;52.276;10.528;2022-10-16T13:50:14;0.88;;;0.68;;
48935;SDS011;34745;52.276;10.528;2022-10-16T13:52:47;1.67;;;0.70;;
48935;SDS011;34745;52.276;10.528;2022-10-16T13:55:25;1.90;;;0.80;;
48935;SDS011;34745;52.276;10.528;2022-10-16T13:58:04;1.92;;;0.73;;
48935;SDS011;34745;52.276;10.528;2022-10-16T14:00:42;2.35;;;0.98;;
48935;SDS011;34745;52.276;10.528;2022-10-16T14:03:26;2.10;;;0.90;;
48935;SDS011;34745;52.276;10.528;2022-10-16T14:06:00;2.30;;;0.88;;
48935;SDS011;34745;52.276;10.528;2022-10-16T14:08:32;1.02;;;0.73;;
48935;SDS011;34745;52.276;10.528;2022-10-16T14:11:03;3.30;;;1.05;;
48935;SDS011;34745;52.276;10.528;2022-10-16T14:13:42;1.35;;;0.80;;
48935;SDS011;34745;52.276;10.528;2022-10-16T14:16:18;2.42;;;0.98;;
48935;SDS011;34745;52.276;10.528;2022-10-16T14:19:05;2.15;;;1.15;;
48935;SDS011;34745;52.276;10.528;2022-10-16T14:21:40;2.78;;;1.00;;
48935;SDS011;34745;52.276;10.528;2022-10-16T14:24:12;2.40;;;0.73;;
48935;SDS011;34745;52.276;10.528;2022-10-16T14:26:41;1.63;;;0.80;;
48935;SDS011;34745;52.276;10.528;2022-10-16T14:29:18;1.33;;;0.70;;
48935;SDS011;34745;52.276;10.528;2022-10-16T14:32:05;3.58;;;0.82;;
48935;SDS011;34745;52.276;10.528;2022-10-16T14:34:56;1.95;;;0.93;;
48935;SDS011;34745;52.276;10.528;2022-10-16T14:37:43;2.42;;;0.90;;
48935;SDS011;34745;52.276;10.528;2022-10-16T14:40:23;5.75;;;0.90;;
48935;SDS011;34745;52.276;10.528;2022-10-16T14:43:03;3.00;;;0.90;;
48935;SDS011;34745;52.276;10.528;2022-10-16T14:48:34;0.80;;;0.80;;
48935;SDS011;34745;52.276;10.528;2022-10-16T14:51:07;4.50;;;1.23;;
48935;SDS011;34745;52.276;10.528;2022-10-16T14:53:44;0.93;;;0.80;;
48935;SDS011;34745;52.276;10.528;2022-10-16T14:56:40;0.88;;;0.77;;
48935;SDS011;34745;52.276;10.528;2022-10-16T14:59:25;1.27;;;0.90;;
48935;SDS011;34745;52.276;10.528;2022-10-16T15:02:16;3.63;;;1.02;;
48935;SDS011;34745;52.276;10.528;2022-10-16T15:05:04;1.67;;;0.80;;
48935;SDS011;34745;52.276;10.528;2022-10-16T15:07:51;4.63;;;1.02;;
48935;SDS011;34745;52.276;10.528;2022-10-16T15:10:25;2.67;;;0.90;;
48935;SDS011;34745;52.276;10.528;2022-10-16T15:13:15;1.20;;;1.10;;
48935;SDS011;34745;52.276;10.528;2022-10-16T15:15:51;1.13;;;0.93;;
48935;SDS011;34745;52.276;10.528;2022-10-16T15:18:38;2.45;;;1.10;;
48935;SDS011;34745;52.276;10.528;2022-10-16T15:21:20;1.60;;;1.10;;